Time,TemperatureF,DewpointF,PressureIn,WindDirection,WindDirectionDegrees,WindSpeedMPH,WindSpeedGustMPH,Humidity,HourlyPrecipIn,Conditions,Clouds,dailyrainin,SolarRadiationWatts/m^2,SoftwareType,DateUTC
2014-07-24 00:10:00,65.4,61.4,29.92,NW,309,0.0,0.0,87,0.00,,,0.00,0,Wunderground v.1.15,2014-07-24 04:10:00,
2014-07-24 00:20:00,65.2,61.6,29.92,NW,310,0.0,0.0,88,0.00,,,0.00,0,Wunderground v.1.15,2014-07-24 04:20:00,
2014-07-24 00:30:00,65.0,61.4,29.92,WNW,290,1.0,2.0,88,0.00,,,0.00,0,Wunderground v.1.15,2014-07-24 04:30:00,
2014-07-24 00:40:00,65.0,61.0,29.92,WNW,294,0.0,1.0,87,0.00,,,0.00,0,Wunderground v.1.15,2014-07-24 04:40:00,
2014-07-24 00:50:00,65.0,61.0,29.92,WNW,297,0.0,0.0,87,0.00,,,0.00,0,Wunderground v.1.15,2014-07-24 04:50:00,
2014-07-24 01:00:00,65.0,61.0,29.92,NW,305,0.0,0.0,87,0.00,,,0.00,0,Wunderground v.1.15,2014-07-24 05:00:00,
2014-07-24 01:10:00,65.1,61.1,29.92,NW,305,0.0,0.0,87,0.00,,,0.00,0,Wunderground v.1.15,2014-07-24 05:10:00,
2014-07-24 01:20:00,64.8,61.5,29.92,NW,305,0.0,0.0,89,0.00,,,0.00,0,Wunderground v.1.15,2014-07-24 05:20:00,
2014-07-24 01:30:00,64.5,60.9,29.92,NW,305,0.0,0.0,88,0.00,,,0.00,0,Wunderground v.1.15,2014-07-24 05:30:00,
2014-07-24 01:40:00,64.5,61.8,29.92,NW,305,0.0,0.0,91,0.00,,,0.00,0,Wunderground v.1.15,2014-07-24 05:40:00,
2014-07-24 01:50:00,64.2,61.8,29.92,NW,305,0.0,0.0,92,0.00,,,0.00,0,Wunderground v.1.15,2014-07-24 05:50:00,
2014-07-24 02:00:00,63.8,61.7,29.92,NW,305,0.0,0.0,93,0.00,,,0.00,0,Wunderground v.1.15,2014-07-24 06:00:00,
2014-07-24 02:10:00,63.4,61.0,29.92,NW,305,0.0,0.0,92,0.00,,,0.00,0,Wunderground v.1.15,2014-07-24 06:10:00,
2014-07-24 02:20:00,63.0,60.9,29.92,NW,305,0.0,0.0,93,0.00,,,0.00,0,Wunderground v.1.15,2014-07-24 06:20:00,
2014-07-24 02:30:00,62.8,60.7,29.92,NNE,26,1.0,2.0,93,0.00,,,0.00,0,Wunderground v.1.15,2014-07-24 06:30:00,
2014-07-24 02:40:00,62.9,59.6,29.92,North,360,2.0,2.0,89,0.00,,,0.00,0,Wunderground v.1.15,2014-07-24 06:40:00,
2014-07-24 02:50:00,63.2,58.6,29.92,NNE,15,2.0,2.0,85,0.00,,,0.00,0,Wunderground v.1.15,2014-07-24 06:50:00,
2014-07-24 03:00:00,63.1,57.2,29.92,NW,321,3.0,3.0,81,0.00,,,0.00,0,Wunderground v.1.15,2014-07-24 07:00:00,
2014-07-24 03:10:00,62.7,56.4,29.92,North,351,2.0,2.0,80,0.00,,,0.00,0,Wunderground v.1.15,2014-07-24 07:10:00,
2014-07-24 03:20:00,62.1,55.9,29.92,NE,36,2.0,4.0,80,0.00,,,0.00,0,Wunderground v.1.15,2014-07-24 07:20:00,
2014-07-24 03:30:00,61.8,55.6,29.93,NNW,334,3.0,6.0,80,0.00,,,0.00,0,Wunderground v.1.15,2014-07-24 07:30:00,
2014-07-24 03:40:00,61.4,55.5,29.93,NNE,20,2.0,2.0,81,0.00,,,0.00,0,Wunderground v.1.15,2014-07-24 07:40:00,
2014-07-24 03:50:00,61.0,55.1,29.93,North,5,2.0,2.0,81,0.00,,,0.00,0,Wunderground v.1.15,2014-07-24 07:50:00,
2014-07-24 04:00:00,60.5,55.0,29.93,North,11,2.0,2.0,82,0.00,,,0.00,0,Wunderground v.1.15,2014-07-24 08:00:00,
2014-07-24 04:10:00,60.2,55.0,29.93,NE,40,2.0,3.0,83,0.00,,,0.00,0,Wunderground v.1.15,2014-07-24 08:10:00,
2014-07-24 04:20:00,60.0,54.8,29.93,NNW,331,1.0,1.0,83,0.00,,,0.00,0,Wunderground v.1.15,2014-07-24 08:20:00,
2014-07-24 04:30:00,59.7,54.9,29.93,North,355,1.0,1.0,84,0.00,,,0.00,0,Wunderground v.1.15,2014-07-24 08:30:00,
2014-07-24 04:40:00,59.4,54.9,29.94,NNW,339,1.0,1.0,85,0.00,,,0.00,0,Wunderground v.1.15,2014-07-24 08:40:00,
2014-07-24 04:50:00,59.1,54.6,29.94,NNW,337,1.0,1.0,85,0.00,,,0.00,0,Wunderground v.1.15,2014-07-24 08:50:00,
2014-07-24 05:00:00,58.6,54.7,29.94,NNW,340,0.0,2.0,87,0.00,,,0.00,0,Wunderground v.1.15,2014-07-24 09:00:00,
2014-07-24 05:10:00,58.5,54.6,29.95,NNE,22,1.0,2.0,87,0.00,,,0.00,0,Wunderground v.1.15,2014-07-24 09:10:00,
2014-07-24 05:20:00,58.8,54.6,29.95,North,349,1.0,1.0,86,0.00,,,0.00,0,Wunderground v.1.15,2014-07-24 09:20:00,
2014-07-24 05:30:00,59.3,54.8,29.95,NNW,339,1.0,1.0,85,0.00,,,0.00,0,Wunderground v.1.15,2014-07-24 09:30:00,
2014-07-24 05:40:00,59.5,55.0,29.95,North,355,1.0,1.0,85,0.00,,,0.00,0,Wunderground v.1.15,2014-07-24 09:40:00,
2014-07-24 05:50:00,59.6,54.8,29.96,North,350,1.0,1.0,84,0.00,,,0.00,0,Wunderground v.1.15,2014-07-24 09:50:00,
2014-07-24 06:00:00,59.7,54.9,29.96,NW,321,0.0,0.0,84,0.00,,,0.00,7,Wunderground v.1.15,2014-07-24 10:00:00,
2014-07-24 06:10:00,59.6,55.1,29.97,NW,323,0.0,0.0,85,0.00,,,0.00,11,Wunderground v.1.15,2014-07-24 10:10:00,
2014-07-24 06:20:00,59.8,55.0,29.97,NNW,346,0.0,0.0,84,0.00,,,0.00,18,Wunderground v.1.15,2014-07-24 10:20:00,
2014-07-24 06:30:00,59.9,55.4,29.97,NNW,330,0.0,0.0,85,0.00,,,0.00,19,Wunderground v.1.15,2014-07-24 10:30:00,
2014-07-24 06:40:00,60.1,55.2,29.97,NNW,348,1.0,1.0,84,0.00,,,0.00,60,Wunderground v.1.15,2014-07-24 10:40:00,
2014-07-24 06:50:00,60.5,55.6,29.97,North,11,1.0,1.0,84,0.00,,,0.00,62,Wunderground v.1.15,2014-07-24 10:50:00,